< < Back
Terminal Aerodrome Forecast


Current Version              Previous Versions:   1  2  3  4  5  6  7  8  9  

Terminal Aerodrome Forecast

581
FTUS42 KFFC 070541
TAFFTY
TAF
KFTY 070541Z 0706/0806 23004KT P6SM FEW200
     FM071600 27006KT P6SM FEW050
     FM080200 26005KT P6SM FEW150=

Latest METAR

674
SAUS70 KWBC 071900 RRE
MTRFTY
METAR KFTY 071853Z 21007KT 10SM FEW075 32/19 A3015 RMK AO2 SLP199
T03170194


USA.gov is the U.S. government's official web portal to all federal, state and local government web resources and services.